Time;durP1;ratioP1;P1;durP2;ratioP2;P2;SDS_P1;SDS_P2;PMS_P1;PMS_P2;Temp;Humidity;BMP_temperature;BMP_pressure;BME280_temperature;BME280_humidity;BME280_pressure;Samples;Min_cycle;Max_cycle;Signal;HPM_P1;HPM_P2
2022/04/05 05:40:22;;;;;;;10.95;4.63;;;;;;;;;;5731026;23;20050;-67
2022/04/05 05:42:49;;;;;;;11.35;5.78;;;;;;;;;;4932437;29;20044;-58
2022/04/05 05:45:16;;;;;;;10.85;6.13;;;;;;;;;;4936497;29;20028;-62
2022/04/05 05:47:42;;;;;;;9.63;5.63;;;;;;;;;;4936628;29;20437;-63
2022/04/05 05:50:10;;;;;;;9.18;4.95;;;;;;;;;;4938125;29;20024;-59
2022/04/05 05:52:36;;;;;;;9.32;5.03;;;;;;;;;;4936470;29;20476;-58
2022/04/05 05:55:02;;;;;;;9.23;5.70;;;;;;;;;;4936729;29;20146;-61
2022/04/05 05:57:28;;;;;;;9.82;4.97;;;;;;;;;;4937039;29;20040;-71
2022/04/05 05:59:55;;;;;;;8.93;4.90;;;;;;;;;;4938212;29;20078;-70
2022/04/05 06:02:21;;;;;;;8.77;4.85;;;;;;;;;;4938207;29;20119;-73
2022/04/05 06:04:47;;;;;;;10.18;5.57;;;;;;;;;;4921132;29;20023;-64
2022/04/05 06:07:13;;;;;;;8.65;5.40;;;;;;;;;;4937027;29;20042;-74
2022/04/05 06:09:39;;;;;;;9.10;4.47;;;;;;;;;;4936940;29;20020;-64
2022/04/05 06:12:05;;;;;;;8.18;5.03;;;;;;;;;;4921373;29;20110;-64
2022/04/05 06:14:31;;;;;;;8.90;5.13;;;;;;;;;;4938160;29;20106;-58
2022/04/05 06:16:58;;;;;;;10.52;4.95;;;;;;;;;;4920623;29;20039;-59
2022/04/05 06:19:24;;;;;;;10.25;4.82;;;;;;;;;;4936272;29;20032;-66
2022/04/05 06:21:50;;;;;;;10.15;4.80;;;;;;;;;;4937444;29;20064;-58
2022/04/05 06:24:18;;;;;;;8.02;4.68;;;;;;;;;;4937856;29;20063;-60
2022/04/05 06:26:44;;;;;;;7.85;4.18;;;;;;;;;;4937049;29;20053;-65
2022/04/05 06:29:10;;;;;;;12.30;5.68;;;;;;;;;;4937369;29;20054;-72
2022/04/05 06:31:36;;;;;;;8.07;5.05;;;;;;;;;;4936436;29;20023;-66
2022/04/05 06:34:02;;;;;;;7.85;4.40;;;;;;;;;;4936536;29;20028;-71
2022/04/05 06:36:29;;;;;;;10.77;4.93;;;;;;;;;;4936285;29;20039;-70
2022/04/05 06:38:55;;;;;;;9.00;5.18;;;;;;;;;;4937568;29;20434;-70
2022/04/05 06:41:21;;;;;;;8.38;4.55;;;;;;;;;;4937510;29;20094;-68
2022/04/05 06:43:48;;;;;;;8.98;5.05;;;;;;;;;;4937537;29;20043;-68
2022/04/05 06:46:17;;;;;;;9.18;4.45;;;;;;;;;;4937460;29;20155;-71
2022/04/05 06:48:43;;;;;;;8.10;4.53;;;;;;;;;;4930822;29;20031;-67
2022/04/05 06:51:09;;;;;;;7.30;4.53;;;;;;;;;;4905297;29;20119;-71
2022/04/05 06:53:35;;;;;;;7.57;4.88;;;;;;;;;;4917080;29;20489;-70
2022/04/05 06:56:01;;;;;;;9.02;4.75;;;;;;;;;;4918486;29;20068;-71
2022/04/05 06:58:27;;;;;;;11.15;5.18;;;;;;;;;;4901440;29;20064;-71
2022/04/05 07:00:53;;;;;;;9.23;4.75;;;;;;;;;;4923680;29;20031;-72
2022/04/05 07:03:20;;;;;;;8.38;4.57;;;;;;;;;;4936490;29;20043;-73
2022/04/05 07:05:46;;;;;;;9.63;4.97;;;;;;;;;;4935883;29;20023;-72
2022/04/05 07:08:12;;;;;;;8.98;5.07;;;;;;;;;;4935791;29;20027;-70
2022/04/05 07:10:38;;;;;;;7.47;4.57;;;;;;;;;;4936951;29;20036;-57
2022/04/05 07:13:04;;;;;;;8.25;4.97;;;;;;;;;;4935544;29;20031;-60
2022/04/05 07:15:30;;;;;;;11.38;5.07;;;;;;;;;;4934567;29;20034;-59
2022/04/05 07:17:57;;;;;;;11.63;5.20;;;;;;;;;;4949127;29;20028;-57
2022/04/05 07:20:23;;;;;;;10.63;5.05;;;;;;;;;;4936085;29;20038;-57
2022/04/05 07:22:50;;;;;;;10.00;5.22;;;;;;;;;;4951373;29;20036;-57
2022/04/05 07:25:16;;;;;;;10.60;5.50;;;;;;;;;;4936635;29;20024;-57
2022/04/05 07:27:46;;;;;;;10.48;5.50;;;;;;;;;;4951080;29;20031;-57
2022/04/05 07:30:13;;;;;;;10.25;5.10;;;;;;;;;;4949055;29;20115;-57
2022/04/05 07:32:44;;;;;;;10.27;6.13;;;;;;;;;;4936289;29;20024;-61
2022/04/05 07:35:10;;;;;;;10.10;5.90;;;;;;;;;;4919381;29;20032;-58
2022/04/05 07:37:37;;;;;;;10.40;5.95;;;;;;;;;;4933440;29;20071;-64
2022/04/05 07:40:10;;;;;;;7.68;4.95;;;;;;;;;;4933668;29;20498;-59
2022/04/05 07:42:37;;;;;;;8.85;5.07;;;;;;;;;;4933617;29;20349;-58
2022/04/05 07:45:03;;;;;;;8.60;5.05;;;;;;;;;;4933266;29;20091;-58
2022/04/05 07:47:30;;;;;;;8.88;5.40;;;;;;;;;;4934214;29;20035;-61
2022/04/05 07:49:56;;;;;;;8.82;5.20;;;;;;;;;;4935381;29;20096;-66
2022/04/05 07:52:22;;;;;;;9.40;5.15;;;;;;;;;;4934019;29;20032;-58
2022/04/05 07:54:48;;;;;;;7.88;4.57;;;;;;;;;;4935864;29;20063;-57
2022/04/05 07:57:15;;;;;;;8.90;5.10;;;;;;;;;;4936254;29;20489;-57
2022/04/05 07:59:41;;;;;;;11.25;5.63;;;;;;;;;;4936064;29;20024;-57
2022/04/05 08:02:07;;;;;;;9.20;5.00;;;;;;;;;;4937722;28;20417;-58
2022/04/05 08:04:33;;;;;;;9.65;5.25;;;;;;;;;;4934139;29;20425;-60
2022/04/05 08:07:02;;;;;;;10.07;4.78;;;;;;;;;;4933823;29;20131;-56
2022/04/05 08:09:30;;;;;;;8.00;4.70;;;;;;;;;;4934075;29;20027;-64
2022/04/05 08:11:56;;;;;;;7.57;4.38;;;;;;;;;;4930804;29;20039;-63
2022/04/05 08:14:27;;;;;;;9.27;4.65;;;;;;;;;;4934380;29;21330;-55
2022/04/05 08:16:54;;;;;;;8.45;4.93;;;;;;;;;;4933454;29;20028;-56
2022/04/05 08:19:20;;;;;;;8.57;4.97;;;;;;;;;;4934726;29;20028;-54
2022/04/05 08:21:46;;;;;;;9.15;4.95;;;;;;;;;;4935022;29;20075;-55
2022/04/05 08:24:12;;;;;;;11.45;5.22;;;;;;;;;;4935004;29;20047;-56
2022/04/05 08:26:38;;;;;;;8.10;4.30;;;;;;;;;;4939538;29;20126;-59
2022/04/05 08:29:04;;;;;;;7.85;4.20;;;;;;;;;;4969851;28;20031;-58
2022/04/05 08:31:31;;;;;;;8.68;4.85;;;;;;;;;;4954851;29;20118;-59
2022/04/05 08:33:57;;;;;;;7.35;4.20;;;;;;;;;;4969896;28;20097;-70
2022/04/05 08:36:23;;;;;;;8.15;4.47;;;;;;;;;;4962678;28;20059;-63
2022/04/05 08:38:49;;;;;;;7.65;4.40;;;;;;;;;;4954917;29;20042;-66
2022/04/05 08:41:17;;;;;;;12.95;4.47;;;;;;;;;;4954818;29;20043;-66
2022/04/05 08:43:44;;;;;;;7.38;4.43;;;;;;;;;;4953310;29;20040;-59
2022/04/05 08:46:10;;;;;;;9.55;4.63;;;;;;;;;;4953715;29;20106;-54
2022/04/05 08:48:37;;;;;;;7.97;4.25;;;;;;;;;;4953682;29;20031;-62
2022/04/05 08:51:04;;;;;;;7.20;4.05;;;;;;;;;;4953423;29;20552;-59
2022/04/05 08:53:31;;;;;;;6.35;3.63;;;;;;;;;;4953295;29;20404;-60
2022/04/05 08:55:58;;;;;;;6.75;3.53;;;;;;;;;;4953516;29;20032;-67
2022/04/05 08:58:24;;;;;;;7.25;3.75;;;;;;;;;;4953531;29;20031;-69
2022/04/05 09:00:52;;;;;;;6.50;3.72;;;;;;;;;;4953118;29;20032;-57
2022/04/05 09:03:19;;;;;;;5.72;3.72;;;;;;;;;;4954957;29;20130;-62
2022/04/05 09:05:46;;;;;;;7.15;4.35;;;;;;;;;;4953481;29;20023;-72
2022/04/05 09:08:18;;;;;;;6.93;4.13;;;;;;;;;;4954555;29;20030;-73
2022/04/05 09:10:45;;;;;;;9.07;3.70;;;;;;;;;;4954836;29;20023;-71
2022/04/05 09:13:12;;;;;;;6.88;4.20;;;;;;;;;;4953423;29;20032;-66
2022/04/05 09:15:40;;;;;;;14.52;3.80;;;;;;;;;;4953390;29;20421;-67
2022/04/05 09:18:07;;;;;;;6.55;4.03;;;;;;;;;;4954708;29;20026;-53
2022/04/05 09:20:44;;;;;;;6.28;3.40;;;;;;;;;;4953128;29;20070;-70
2022/04/05 09:23:33;;;;;;;6.28;3.90;;;;;;;;;;4953376;29;20036;-69
2022/04/05 09:26:01;;;;;;;7.28;4.18;;;;;;;;;;4928141;29;20114;-74
2022/04/05 09:28:28;;;;;;;7.13;4.45;;;;;;;;;;4924929;29;20035;-67
2022/04/05 09:30:58;;;;;;;6.60;4.00;;;;;;;;;;4957683;29;20035;-73
2022/04/05 09:33:24;;;;;;;5.88;3.63;;;;;;;;;;4958074;29;20023;-73
2022/04/05 09:35:55;;;;;;;5.25;3.28;;;;;;;;;;4951888;29;20035;-74
2022/04/05 09:38:21;;;;;;;6.30;3.33;;;;;;;;;;4949041;29;20065;-73
2022/04/05 09:40:52;;;;;;;4.95;3.25;;;;;;;;;;4930160;29;20051;-65
2022/04/05 09:43:18;;;;;;;6.72;3.58;;;;;;;;;;4961484;28;20444;-64
2022/04/05 09:45:58;;;;;;;4.97;3.22;;;;;;;;;;4956391;29;20039;-72
2022/04/05 09:48:26;;;;;;;5.13;3.35;;;;;;;;;;4956562;29;20078;-73
2022/04/05 09:51:02;;;;;;;4.47;2.40;;;;;;;;;;4955934;29;20392;-73
2022/04/05 09:53:30;;;;;;;5.22;2.63;;;;;;;;;;4958017;29;20035;-68
2022/04/05 09:56:03;;;;;;;5.20;2.78;;;;;;;;;;4957477;29;20074;-74
2022/04/05 09:58:30;;;;;;;5.45;2.88;;;;;;;;;;4957292;29;20035;-70
2022/04/05 10:01:06;;;;;;;3.25;1.90;;;;;;;;;;4956161;29;20046;-73
2022/04/05 10:03:33;;;;;;;4.18;2.35;;;;;;;;;;4956051;29;20039;-71
2022/04/05 10:05:59;;;;;;;5.57;2.25;;;;;;;;;;4955771;29;20031;-61
2022/04/05 10:08:26;;;;;;;8.23;2.30;;;;;;;;;;4956077;29;20099;-63
2022/04/05 10:10:52;;;;;;;5.05;2.55;;;;;;;;;;4955553;29;20035;-64
2022/04/05 10:13:19;;;;;;;5.00;2.00;;;;;;;;;;4957162;29;20477;-75
2022/04/05 10:15:48;;;;;;;4.70;2.55;;;;;;;;;;4957292;29;20066;-61
2022/04/05 10:18:20;;;;;;;4.72;2.38;;;;;;;;;;4972037;28;20031;-66
2022/04/05 10:20:49;;;;;;;3.42;1.63;;;;;;;;;;4972013;28;20028;-63
2022/04/05 10:23:19;;;;;;;2.35;1.25;;;;;;;;;;4971520;28;20035;-61
2022/04/05 10:25:45;;;;;;;4.50;1.50;;;;;;;;;;4971762;28;20110;-65
2022/04/05 10:28:14;;;;;;;2.78;1.20;;;;;;;;;;4971849;28;20058;-61
2022/04/05 10:31:13;;;;;;;4.80;1.80;;;;;;;;;;4971527;28;20023;-58
2022/04/05 10:33:53;;;;;;;2.10;1.05;;;;;;;;;;4923658;29;20035;-61
2022/04/05 10:36:23;;;;;;;2.97;1.40;;;;;;;;;;4962518;28;20027;-75
2022/04/05 10:39:08;;;;;;;4.40;1.42;;;;;;;;;;4936257;29;20113;-74
2022/04/05 10:41:34;;;;;;;3.58;1.40;;;;;;;;;;4937107;29;20059;-60
2022/04/05 10:44:18;;;;;;;3.75;1.60;;;;;;;;;;4920040;29;20036;-72
2022/04/05 10:46:53;;;;;;;3.72;1.38;;;;;;;;;;4920133;29;20034;-71
2022/04/05 10:49:35;;;;;;;3.35;1.98;;;;;;;;;;4937533;29;20024;-63
2022/04/05 10:52:09;;;;;;;4.65;1.60;;;;;;;;;;4920202;29;20098;-58
2022/04/05 10:54:37;;;;;;;4.85;1.95;;;;;;;;;;4920318;29;20535;-61
2022/04/05 10:57:16;;;;;;;6.05;1.58;;;;;;;;;;4919951;29;20040;-58
2022/04/05 10:59:46;;;;;;;3.67;1.48;;;;;;;;;;4953420;29;20075;-56
2022/04/05 11:02:33;;;;;;;3.42;1.55;;;;;;;;;;4954637;29;20031;-57
2022/04/05 11:05:01;;;;;;;3.92;1.65;;;;;;;;;;4954889;29;20539;-65
2022/04/05 11:07:27;;;;;;;5.90;2.08;;;;;;;;;;4954862;29;20038;-57
2022/04/05 11:10:02;;;;;;;3.17;1.60;;;;;;;;;;4954882;29;20027;-73
2022/04/05 11:12:30;;;;;;;2.70;1.25;;;;;;;;;;4954582;29;20456;-71
2022/04/05 11:15:03;;;;;;;3.75;1.80;;;;;;;;;;4955976;29;20507;-71
2022/04/05 11:17:30;;;;;;;3.17;1.50;;;;;;;;;;4954745;29;20035;-67
2022/04/05 11:19:57;;;;;;;3.40;1.60;;;;;;;;;;4954839;29;20389;-67
2022/04/05 11:22:24;;;;;;;5.13;1.33;;;;;;;;;;4954518;29;20027;-73
2022/04/05 11:24:55;;;;;;;2.65;1.30;;;;;;;;;;4954736;29;20042;-71
2022/04/05 11:27:25;;;;;;;8.00;1.63;;;;;;;;;;4952025;29;20043;-59
2022/04/05 11:30:10;;;;;;;3.08;1.35;;;;;;;;;;4945690;29;20034;-64
2022/04/05 11:32:36;;;;;;;3.22;1.25;;;;;;;;;;4921965;29;20034;-64
2022/04/05 11:35:02;;;;;;;2.92;1.50;;;;;;;;;;4935349;29;20042;-58
2022/04/05 11:37:35;;;;;;;5.32;1.35;;;;;;;;;;4954197;29;20493;-69
2022/04/05 11:40:02;;;;;;;2.60;1.23;;;;;;;;;;4954369;29;20058;-58
2022/04/05 11:42:34;;;;;;;2.47;1.05;;;;;;;;;;4936536;29;20609;-58
2022/04/05 11:45:02;;;;;;;2.63;1.25;;;;;;;;;;4941093;29;20031;-54
2022/04/05 11:47:28;;;;;;;2.28;0.95;;;;;;;;;;4945838;29;20031;-56
2022/04/05 11:49:54;;;;;;;2.35;1.10;;;;;;;;;;4934499;29;20046;-57
2022/04/05 11:52:28;;;;;;;3.78;1.10;;;;;;;;;;4936277;29;20027;-58
2022/04/05 11:57:45;;;;;;;2.55;1.08;;;;;;;;;;4936296;29;20392;-58
2022/04/05 17:01:10;;;;;;;3.50;2.08;;;;;;;;;;4908624;29;20555;-95
